createdAt,value
2022-11-04T00:04:23.668Z,5.72
2022-11-04T00:10:45.439Z,6.53
2022-11-04T00:17:06.327Z,5.75
2022-11-04T00:23:26.744Z,6.78
2022-11-04T00:29:28.550Z,6.28
2022-11-04T00:35:30.380Z,6.32
2022-11-04T00:41:32.167Z,6.38
2022-11-04T00:47:38.599Z,6.65
2022-11-04T00:53:40.522Z,6.22
2022-11-04T00:59:42.484Z,6.75
2022-11-04T01:05:44.363Z,7.28
2022-11-04T01:11:46.248Z,6.80
2022-11-04T01:17:48.111Z,5.43
2022-11-04T01:23:49.905Z,5.40
2022-11-04T01:29:51.719Z,5.60
2022-11-04T01:35:53.597Z,3.85
2022-11-04T01:41:55.522Z,3.50
2022-11-04T01:48:11.266Z,3.33
2022-11-04T01:54:19.691Z,3.10
2022-11-04T02:00:22.400Z,3.00
2022-11-04T02:06:40.781Z,3.00
2022-11-04T02:12:59.052Z,2.90
2022-11-04T02:19:17.955Z,3.30
2022-11-04T02:25:55.378Z,3.10
2022-11-04T02:32:10.183Z,3.10
2022-11-04T02:38:36.838Z,3.42
2022-11-04T02:45:00.630Z,3.20
2022-11-04T02:51:15.158Z,3.58
2022-11-04T02:57:22.881Z,4.25
2022-11-04T03:03:29.292Z,4.22
2022-11-04T03:09:43.523Z,4.13
2022-11-04T03:16:06.303Z,4.10
2022-11-04T03:22:13.805Z,4.03
2022-11-04T03:28:30.541Z,3.65
2022-11-04T03:34:35.920Z,3.10
2022-11-04T03:40:47.196Z,2.60
2022-11-04T03:47:11.246Z,1.63
2022-11-04T03:53:16.657Z,1.27
2022-11-04T03:59:52.290Z,1.10
2022-11-04T04:06:03.778Z,1.00
2022-11-04T04:12:18.949Z,1.10
2022-11-04T04:18:36.303Z,1.25
2022-11-04T04:25:11.501Z,1.10
2022-11-04T04:31:39.296Z,1.00
2022-11-04T04:37:48.298Z,0.82
2022-11-04T04:44:27.759Z,1.00
2022-11-04T04:50:49.438Z,0.95
2022-11-04T04:56:52.194Z,2.35
2022-11-04T05:02:55.149Z,0.82
2022-11-04T05:09:05.180Z,1.20
2022-11-04T05:15:23.045Z,1.10
2022-11-04T05:21:36.559Z,3.08
2022-11-04T05:28:42.769Z,2.03
2022-11-04T05:35:22.606Z,1.92
2022-11-04T05:41:32.337Z,1.67
2022-11-04T05:47:41.271Z,1.60
2022-11-04T05:53:49.191Z,2.47
2022-11-04T05:59:51.202Z,2.67
2022-11-04T06:05:52.974Z,2.15
2022-11-04T06:11:54.751Z,2.08
2022-11-04T06:17:56.591Z,2.20
2022-11-04T06:23:59.713Z,3.00
2022-11-04T06:30:01.774Z,3.53
2022-11-04T06:36:06.215Z,2.58
2022-11-04T06:42:08.273Z,2.40
2022-11-04T06:48:12.773Z,2.30
2022-11-04T06:54:15.612Z,2.20
2022-11-04T07:00:18.261Z,2.33
2022-11-04T07:06:21.334Z,1.83
2022-11-04T07:12:24.687Z,2.20
2022-11-04T07:18:27.166Z,1.90
2022-11-04T07:24:29.015Z,1.70
2022-11-04T07:30:31.382Z,1.67
2022-11-04T07:36:36.858Z,2.10
2022-11-04T07:42:43.813Z,1.40
2022-11-04T07:48:51.542Z,1.20
2022-11-04T07:54:53.324Z,1.10
2022-11-04T08:01:03.918Z,1.15
2022-11-04T08:07:10.810Z,1.30
2022-11-04T08:13:12.566Z,1.38
2022-11-04T08:19:14.348Z,1.48
2022-11-04T08:25:16.863Z,1.30
2022-11-04T08:31:25.286Z,1.17
2022-11-04T08:37:27.073Z,1.30
2022-11-04T08:43:29.311Z,1.40
2022-11-04T08:49:31.300Z,1.15
2022-11-04T08:55:33.479Z,1.20
2022-11-04T09:01:36.754Z,1.35
2022-11-04T09:07:38.816Z,1.30
2022-11-04T09:13:41.147Z,1.30
2022-11-04T09:19:43.221Z,1.40
2022-11-04T09:25:48.197Z,1.02
2022-11-04T09:31:50.309Z,1.63
2022-11-04T09:37:52.113Z,1.52
2022-11-04T09:44:11.458Z,1.50
2022-11-04T09:50:25.203Z,1.48
2022-11-04T09:56:37.449Z,1.40
2022-11-04T10:02:51.993Z,1.60
2022-11-04T10:08:59.697Z,1.27
2022-11-04T10:15:32.493Z,1.40
2022-11-04T10:22:03.686Z,1.15
2022-11-04T10:28:09.279Z,1.58
2022-11-04T10:34:37.519Z,1.50
2022-11-04T10:40:41.792Z,1.60
2022-11-04T10:46:51.356Z,1.50
2022-11-04T10:53:02.072Z,1.45
2022-11-04T10:59:25.204Z,1.30
2022-11-04T11:05:28.812Z,1.95
2022-11-04T11:12:49.342Z,1.90
2022-11-04T11:18:41.882Z,1.70
2022-11-04T11:24:44.144Z,1.40
2022-11-04T11:30:46.652Z,1.65
2022-11-04T11:36:50.086Z,1.67
2022-11-04T11:42:52.501Z,1.30
2022-11-04T11:49:01.535Z,1.52
2022-11-04T11:55:34.087Z,1.80
2022-11-04T12:01:42.427Z,1.70
2022-11-04T12:14:57.115Z,1.85
2022-11-04T12:21:24.392Z,1.75
2022-11-04T12:27:35.340Z,1.48
2022-11-04T12:33:58.004Z,1.80
2022-11-04T12:40:21.990Z,1.77
2022-11-04T12:46:39.133Z,1.60
2022-11-04T12:53:18.870Z,1.48
2022-11-04T12:59:49.139Z,1.60
2022-11-04T13:06:02.839Z,2.25
2022-11-04T13:12:40.341Z,1.67
2022-11-04T13:18:43.332Z,1.90
2022-11-04T13:25:14.836Z,1.48
2022-11-04T13:31:28.043Z,1.73
2022-11-04T13:37:43.127Z,2.10
2022-11-04T13:43:52.900Z,3.42
2022-11-04T13:49:56.186Z,2.35
2022-11-04T13:56:09.520Z,2.05
2022-11-04T14:02:19.824Z,2.30
2022-11-04T14:08:21.756Z,2.60
2022-11-04T14:14:23.578Z,2.10
2022-11-04T14:20:29.900Z,16.90
2022-11-04T14:26:44.629Z,4.93
2022-11-04T14:32:46.458Z,3.10
2022-11-04T14:38:56.352Z,2.10
2022-11-04T14:44:58.467Z,2.00
2022-11-04T14:51:00.614Z,1.73
2022-11-04T14:57:19.422Z,2.60
2022-11-04T15:04:09.384Z,2.25
2022-11-04T15:09:49.820Z,1.98
2022-11-04T15:15:55.416Z,3.72
2022-11-04T15:21:59.466Z,4.50
2022-11-04T15:28:01.369Z,2.42
2022-11-04T15:34:10.384Z,2.20
2022-11-04T15:40:17.776Z,2.70
2022-11-04T15:46:20.360Z,2.20
2022-11-04T15:52:25.229Z,2.60
2022-11-04T15:58:27.870Z,2.95
2022-11-04T16:04:30.565Z,2.67
2022-11-04T16:10:36.368Z,2.80
2022-11-04T16:16:38.237Z,2.45
2022-11-04T16:22:43.741Z,3.28
2022-11-04T16:28:45.602Z,3.20
2022-11-04T16:34:49.973Z,2.80
2022-11-04T16:40:51.872Z,3.30
2022-11-04T16:46:54.369Z,2.88
2022-11-04T16:52:56.292Z,3.50
2022-11-04T16:58:58.134Z,4.40
2022-11-04T17:04:59.951Z,26.30
2022-11-04T17:11:02.545Z,8.38
2022-11-04T17:17:04.684Z,4.00
2022-11-04T17:23:06.696Z,4.20
2022-11-04T17:29:14.425Z,5.03
2022-11-04T17:35:18.987Z,13.77
2022-11-04T17:41:39.242Z,10.02
2022-11-04T17:47:41.300Z,11.95
2022-11-04T17:53:43.047Z,14.85
2022-11-04T17:59:44.894Z,12.90
2022-11-04T18:05:46.672Z,9.68
2022-11-04T18:19:12.694Z,9.98
2022-11-04T18:25:40.097Z,7.32
2022-11-04T18:31:47.802Z,8.75
2022-11-04T18:37:50.986Z,8.73
2022-11-04T18:43:52.954Z,8.70
2022-11-04T18:49:55.099Z,8.55
2022-11-04T18:56:10.953Z,8.90
2022-11-04T19:02:23.264Z,8.73
2022-11-04T19:08:25.376Z,13.13
2022-11-04T19:14:27.152Z,12.90
2022-11-04T19:20:28.949Z,13.38
2022-11-04T19:26:33.624Z,14.63
2022-11-04T19:32:35.523Z,16.05
2022-11-04T19:38:37.694Z,17.35
2022-11-04T19:44:39.576Z,16.05
2022-11-04T19:50:46.845Z,16.48
2022-11-04T19:56:48.639Z,15.50
2022-11-04T20:02:51.407Z,14.82
2022-11-04T20:08:53.161Z,12.93
2022-11-04T20:14:56.554Z,12.13
2022-11-04T20:20:58.412Z,12.85
2022-11-04T20:27:00.305Z,11.77
2022-11-04T20:33:02.583Z,12.70
2022-11-04T20:39:18.981Z,12.52
2022-11-04T20:45:21.275Z,12.30
2022-11-04T20:51:28.687Z,12.82
2022-11-04T20:57:30.522Z,12.65
2022-11-04T21:03:32.356Z,12.40
2022-11-04T21:09:34.220Z,11.98
2022-11-04T21:15:42.166Z,11.80
2022-11-04T21:21:45.131Z,12.43
2022-11-04T21:27:46.989Z,11.77
2022-11-04T21:33:48.845Z,11.27
2022-11-04T21:39:50.719Z,13.48
2022-11-04T21:45:52.522Z,15.23
2022-11-04T21:51:54.395Z,13.82
2022-11-04T21:57:56.218Z,12.30
2022-11-04T22:04:00.183Z,12.30
2022-11-04T22:10:02.315Z,11.25
2022-11-04T22:23:52.686Z,11.30
2022-11-04T22:29:54.523Z,12.85
2022-11-04T22:35:56.302Z,12.13
2022-11-04T22:41:58.090Z,12.27
2022-11-04T22:47:59.871Z,14.90
2022-11-04T22:54:06.687Z,14.52
2022-11-04T23:00:11.796Z,15.50
2022-11-04T23:06:14.970Z,15.60
2022-11-04T23:12:35.267Z,14.43
2022-11-04T23:18:43.032Z,14.35
2022-11-04T23:31:05.629Z,13.00
2022-11-04T23:37:11.997Z,12.57
2022-11-04T23:43:14.056Z,16.10
2022-11-04T23:49:34.586Z,14.02
2022-11-04T23:55:55.112Z,13.68
